Time;durP1;ratioP1;P1;durP2;ratioP2;P2;SDS_P1;SDS_P2;PMS_P1;PMS_P2;Temp;Humidity;BMP_temperature;BMP_pressure;BME280_temperature;BME280_humidity;BME280_pressure;Samples;Min_cycle;Max_cycle;Signal;HPM_P1;HPM_P2
2024/01/10 00:02:22;;;;;;;;;9.75;9.75;;;;;-1.90;60.05;103265.78;5029671;28;11586;-70
2024/01/10 00:04:49;;;;;;;;;9.00;9.00;;;;;-1.88;60.01;103264.78;5028739;28;11512;-70
2024/01/10 00:07:16;;;;;;;;;9.50;9.00;;;;;-2.00;60.21;103271.34;5031137;28;11544;-70
2024/01/10 00:09:42;;;;;;;;;17.00;12.00;;;;;-2.08;59.02;103268.13;5030190;28;11543;-68
2024/01/10 00:12:09;;;;;;;;;10.50;9.50;;;;;-2.08;60.16;103257.56;5031128;28;11532;-69
2024/01/10 00:14:35;;;;;;;;;12.50;12.25;;;;;-2.03;59.96;103265.31;5030310;28;11515;-69
2024/01/10 00:17:02;;;;;;;;;14.50;9.00;;;;;-2.03;60.45;103254.75;5031040;28;12242;-69
2024/01/10 00:19:29;;;;;;;;;11.25;8.75;;;;;-2.04;59.99;103261.81;5029865;28;11545;-70
2024/01/10 00:21:55;;;;;;;;;8.50;8.50;;;;;-1.94;59.96;103264.16;5028953;28;11571;-70
2024/01/10 00:24:22;;;;;;;;;10.50;10.00;;;;;-1.96;60.60;103256.28;5031674;28;11518;-69
2024/01/10 00:26:49;;;;;;;;;17.75;14.00;;;;;-1.98;60.42;103255.50;5030295;28;11557;-70
2024/01/10 00:29:15;;;;;;;;;10.50;10.50;;;;;-1.97;60.56;103251.94;5030757;28;11569;-69
2024/01/10 00:31:42;;;;;;;;;12.00;10.00;;;;;-1.97;60.75;103245.78;5028941;28;11534;-70
2024/01/10 00:34:09;;;;;;;;;11.00;10.50;;;;;-2.04;61.07;103238.06;5019298;28;11661;-69
2024/01/10 00:36:35;;;;;;;;;9.25;8.00;;;;;-2.03;61.78;103239.78;5017348;28;11553;-69
2024/01/10 00:39:02;;;;;;;;;15.75;10.75;;;;;-1.99;61.33;103240.53;5028915;28;11657;-69
2024/01/10 00:41:29;;;;;;;;;15.00;14.00;;;;;-2.06;61.77;103241.69;5029050;28;11580;-69
2024/01/10 00:43:55;;;;;;;;;7.50;7.50;;;;;-2.09;61.55;103231.25;5030434;28;12579;-69
2024/01/10 00:46:22;;;;;;;;;14.50;12.50;;;;;-2.04;61.47;103231.94;5026093;28;11561;-67
2024/01/10 00:48:48;;;;;;;;;12.00;11.50;;;;;-2.02;61.83;103223.06;5008885;28;11516;-68
2024/01/10 00:51:16;;;;;;;;;15.00;12.00;;;;;-1.98;61.83;103221.19;5010411;28;11712;-69
2024/01/10 00:53:42;;;;;;;;;9.50;9.50;;;;;-1.99;62.19;103220.28;5010681;28;11669;-70
2024/01/10 00:56:09;;;;;;;;;13.25;10.00;;;;;-1.98;62.63;103221.19;5010607;28;11562;-70
2024/01/10 00:58:36;;;;;;;;;18.25;13.25;;;;;-2.05;62.01;103220.53;5009183;28;11560;-69
2024/01/10 01:01:03;;;;;;;;;16.25;15.00;;;;;-2.07;61.49;103219.69;5010180;28;11565;-69
2024/01/10 01:03:29;;;;;;;;;13.00;12.75;;;;;-2.15;62.20;103218.25;5008879;28;11566;-69
2024/01/10 01:05:56;;;;;;;;;21.75;18.00;;;;;-2.18;61.91;103213.09;5011510;28;11654;-69
2024/01/10 01:08:23;;;;;;;;;14.50;12.50;;;;;-2.23;62.48;103215.88;5010356;28;11576;-69
2024/01/10 01:10:49;;;;;;;;;15.00;13.00;;;;;-2.20;62.61;103220.19;5010254;28;11640;-67
2024/01/10 01:13:16;;;;;;;;;15.00;14.00;;;;;-2.21;62.54;103218.47;5028292;28;11665;-70
2024/01/10 01:15:43;;;;;;;;;15.25;15.25;;;;;-2.21;62.28;103214.06;5030082;28;11650;-68
2024/01/10 01:18:12;;;;;;;;;15.00;14.00;;;;;-2.17;62.41;103218.31;5030143;28;11650;-70
2024/01/10 01:20:39;;;;;;;;;15.75;13.00;;;;;-2.22;62.10;103211.50;5028770;28;11559;-69
2024/01/10 01:23:06;;;;;;;;;17.00;15.50;;;;;-2.25;62.25;103212.44;5025765;28;11697;-69
2024/01/10 01:25:32;;;;;;;;;15.50;15.50;;;;;-2.23;62.67;103205.31;5009066;28;11592;-69
2024/01/10 01:27:59;;;;;;;;;16.50;16.00;;;;;-2.15;62.63;103218.25;5009013;28;11557;-67
2024/01/10 01:30:25;;;;;;;;;30.33;21.67;;;;;-2.24;62.15;103214.16;5010055;28;11567;-68
2024/01/10 01:32:52;;;;;;;;;19.00;16.00;;;;;-2.17;62.14;103214.81;5008681;28;11588;-69
2024/01/10 01:35:22;;;;;;;;;17.33;11.33;;;;;-2.19;61.69;103214.84;5010034;28;11588;-67
2024/01/10 01:37:49;;;;;;;;;16.50;15.50;;;;;-2.17;62.40;103207.75;5009036;28;11578;-68
2024/01/10 01:40:18;;;;;;;;;17.25;16.00;;;;;-2.25;61.47;103207.16;5016807;28;11574;-69
2024/01/10 01:42:48;;;;;;;;;21.50;15.25;;;;;-2.31;62.04;103212.63;5011989;28;11570;-69
2024/01/10 01:45:14;;;;;;;;;13.50;13.00;;;;;-2.31;62.44;103205.63;5029952;28;11587;-69
2024/01/10 01:47:41;;;;;;;;;19.50;17.75;;;;;-2.21;62.36;103205.28;5028536;28;12388;-69
2024/01/10 01:50:08;;;;;;;;;21.67;18.33;;;;;-2.20;61.88;103205.22;5029196;28;11573;-68
2024/01/10 01:52:36;;;;;;;;;21.50;20.75;;;;;-2.26;62.89;103205.44;5031601;28;11575;-69
2024/01/10 01:55:04;;;;;;;;;19.00;18.75;;;;;-2.22;62.82;103196.50;5033564;28;11558;-69
2024/01/10 01:57:31;;;;;;;;;18.75;16.50;;;;;-2.21;62.51;103194.72;5017383;28;11707;-69
2024/01/10 01:59:58;;;;;;;;;15.75;15.00;;;;;-2.24;62.65;103193.06;4993366;28;12627;-70
2024/01/10 02:02:25;;;;;;;;;21.00;19.00;;;;;-2.26;62.33;103194.91;4994348;28;11692;-68
2024/01/10 02:04:53;;;;;;;;;12.25;9.25;;;;;-2.32;61.83;103192.47;4994200;28;11661;-68
2024/01/10 02:07:19;;;;;;;;;17.00;15.25;;;;;-2.34;62.11;103196.94;4993640;28;11579;-68
2024/01/10 02:09:46;;;;;;;;;21.33;18.00;;;;;-2.30;62.42;103193.28;4993738;28;11682;-67
2024/01/10 02:12:13;;;;;;;;;18.67;17.33;;;;;-2.31;60.97;103196.81;4992261;28;11581;-68
2024/01/10 02:14:39;;;;;;;;;15.75;13.50;;;;;-2.27;62.14;103187.88;5010505;28;11578;-68
2024/01/10 02:17:06;;;;;;;;;17.50;15.00;;;;;-2.20;61.15;103189.41;5013194;28;11567;-68
2024/01/10 02:19:34;;;;;;;;;19.00;14.33;;;;;-2.11;61.16;103190.84;5013029;28;11548;-68
2024/01/10 02:22:02;;;;;;;;;20.00;16.00;;;;;-2.25;60.32;103188.69;5012595;28;11606;-68
2024/01/10 02:24:29;;;;;;;;;14.00;14.00;;;;;-2.21;60.55;103179.75;5012941;28;11576;-68
2024/01/10 02:26:56;;;;;;;;;18.00;15.00;;;;;-2.19;60.98;103174.41;5011638;28;11698;-68
2024/01/10 02:29:23;;;;;;;;;21.67;14.33;;;;;-2.19;60.67;103163.88;5012715;28;12894;-68
2024/01/10 02:31:50;;;;;;;;;23.67;18.67;;;;;-2.22;60.09;103169.28;5011347;28;11652;-68
2024/01/10 02:34:17;;;;;;;;;14.33;11.67;;;;;-2.19;61.14;103172.63;5011253;28;11585;-68
2024/01/10 02:36:44;;;;;;;;;14.33;12.33;;;;;-2.13;60.95;103172.44;5012778;28;11571;-67
2024/01/10 02:39:10;;;;;;;;;14.75;13.50;;;;;-2.11;60.42;103172.38;5012589;28;11565;-68
2024/01/10 02:41:37;;;;;;;;;22.00;18.75;;;;;-2.14;61.17;103167.22;4994816;28;11569;-68
2024/01/10 02:44:04;;;;;;;;;21.25;18.00;;;;;-2.15;61.29;103168.97;5012760;28;11577;-67
2024/01/10 02:46:30;;;;;;;;;19.00;15.67;;;;;-2.13;61.10;103169.81;5012561;28;11570;-67
2024/01/10 02:48:57;;;;;;;;;12.33;12.33;;;;;-2.08;61.07;103167.00;5012540;28;11554;-68
2024/01/10 02:51:28;;;;;;;;;19.00;16.67;;;;;-2.07;60.68;103169.56;5011130;28;11571;-68
2024/01/10 02:53:54;;;;;;;;;19.00;15.00;;;;;-2.06;60.57;103171.31;5011192;28;11618;-68
2024/01/10 02:56:21;;;;;;;;;16.50;15.00;;;;;-1.99;60.16;103166.66;5012552;28;11564;-68
2024/01/10 02:58:48;;;;;;;;;19.75;12.50;;;;;-1.92;60.85;103173.44;5012258;28;11584;-68
2024/01/10 03:01:15;;;;;;;;;18.00;14.33;;;;;-1.89;60.59;103169.84;5010490;28;11602;-68
2024/01/10 03:03:42;;;;;;;;;21.75;13.50;;;;;-1.94;60.53;103174.44;5013279;28;11622;-68
2024/01/10 03:06:08;;;;;;;;;15.00;13.00;;;;;-1.95;60.37;103168.25;5012292;28;11605;-68
2024/01/10 03:08:35;;;;;;;;;20.00;18.00;;;;;-2.00;59.93;103164.94;5012395;28;11581;-68
2024/01/10 03:11:01;;;;;;;;;15.75;12.00;;;;;-2.01;59.97;103160.59;5013738;28;11549;-69
2024/01/10 03:13:28;;;;;;;;;17.75;13.25;;;;;-2.05;59.98;103156.34;5012088;28;11655;-67
2024/01/10 03:15:55;;;;;;;;;13.00;12.33;;;;;-2.10;60.13;103156.50;5012587;28;11613;-67
2024/01/10 03:18:23;;;;;;;;;18.67;15.67;;;;;-2.09;60.41;103157.34;5011654;28;11597;-69
2024/01/10 03:20:50;;;;;;;;;17.00;14.00;;;;;-2.07;60.28;103153.72;5012927;28;11700;-69
2024/01/10 03:23:17;;;;;;;;;19.00;15.33;;;;;-2.13;59.86;103151.31;4994571;28;11572;-69
2024/01/10 03:25:43;;;;;;;;;16.00;14.33;;;;;-2.11;59.95;103148.63;5011994;28;11559;-67
2024/01/10 03:28:10;;;;;;;;;15.33;15.00;;;;;-2.30;58.63;103153.72;5010690;28;11593;-67
2024/01/10 03:30:36;;;;;;;;;18.67;16.00;;;;;-2.29;59.19;103153.66;5011666;28;11587;-69
2024/01/10 03:33:03;;;;;;;;;19.00;15.67;;;;;-2.23;59.43;103152.56;5011641;28;11681;-67
2024/01/10 03:35:30;;;;;;;;;17.67;13.00;;;;;-2.30;58.71;103154.56;5012602;28;11563;-70
2024/01/10 03:37:57;;;;;;;;;20.33;18.67;;;;;-2.34;59.55;103149.47;5011717;28;12419;-67
2024/01/10 03:40:23;;;;;;;;;19.00;14.33;;;;;-2.32;59.93;103152.91;5010149;28;11627;-67
2024/01/10 03:42:50;;;;;;;;;18.33;15.67;;;;;-2.35;60.15;103151.25;5010101;28;11639;-67
2024/01/10 03:45:20;;;;;;;;;12.67;12.33;;;;;-2.31;59.87;103147.59;5011378;28;11736;-67
2024/01/10 03:47:50;;;;;;;;;19.75;17.00;;;;;-2.30;59.92;103148.44;5010247;28;11604;-67
2024/01/10 03:50:19;;;;;;;;;19.33;16.33;;;;;-2.34;59.43;103146.81;5011444;28;11583;-68
2024/01/10 03:52:46;;;;;;;;;16.00;13.67;;;;;-2.41;58.35;103146.16;5026152;28;11578;-68
2024/01/10 03:55:13;;;;;;;;;22.67;16.67;;;;;-2.37;59.35;103141.66;5011239;28;11647;-68
2024/01/10 03:57:40;;;;;;;;;15.33;13.67;;;;;-2.41;58.59;103145.31;5011116;28;11589;-68
2024/01/10 04:00:07;;;;;;;;;15.75;14.75;;;;;-2.47;57.66;103133.22;5011200;28;11649;-68
2024/01/10 04:02:33;;;;;;;;;20.00;16.00;;;;;-2.52;58.52;103132.47;5009519;28;11713;-68
2024/01/10 04:05:00;;;;;;;;;19.50;17.00;;;;;-2.49;59.32;103129.75;5011054;28;11697;-68
2024/01/10 04:07:27;;;;;;;;;21.67;16.67;;;;;-2.43;59.15;103128.66;5009827;28;11588;-68
2024/01/10 04:09:54;;;;;;;;;18.25;15.00;;;;;-2.48;58.46;103126.19;5028316;28;12254;-67
2024/01/10 04:12:21;;;;;;;;;20.33;15.00;;;;;-2.45;59.29;103125.22;5029027;28;11577;-68
2024/01/10 04:14:47;;;;;;;;;16.50;15.50;;;;;-2.46;59.83;103129.66;5030106;28;11697;-68
2024/01/10 04:17:14;;;;;;;;;19.00;16.00;;;;;-2.46;60.12;103121.75;5030749;28;11677;-68
2024/01/10 04:19:40;;;;;;;;;16.33;14.33;;;;;-2.43;60.30;103128.66;5030713;28;11555;-68
2024/01/10 04:22:07;;;;;;;;;13.00;13.00;;;;;-2.39;60.34;103130.28;5030269;28;11666;-68
2024/01/10 04:24:34;;;;;;;;;15.67;15.33;;;;;-2.46;59.54;103132.28;5027879;28;11691;-68
2024/01/10 04:27:00;;;;;;;;;18.67;15.67;;;;;-2.49;60.07;103133.25;5030291;28;11576;-68
2024/01/10 04:29:27;;;;;;;;;17.33;15.33;;;;;-2.50;60.42;103128.03;5030658;28;11734;-68
2024/01/10 04:31:53;;;;;;;;;14.50;12.75;;;;;-2.53;60.24;103128.13;5030103;28;11560;-68
2024/01/10 04:34:20;;;;;;;;;18.50;16.00;;;;;-2.45;60.63;103134.00;5030326;28;11683;-68
2024/01/10 04:36:47;;;;;;;;;25.00;17.33;;;;;-2.49;60.22;103135.88;5030381;28;11551;-68
2024/01/10 04:39:13;;;;;;;;;16.00;13.00;;;;;-2.50;60.19;103138.59;5030264;28;11574;-68
2024/01/10 04:41:40;;;;;;;;;15.50;14.75;;;;;-2.49;60.15;103130.59;5028503;28;11715;-68
2024/01/10 04:44:06;;;;;;;;;22.00;18.50;;;;;-2.52;59.53;103145.66;5029336;28;11565;-68
2024/01/10 04:46:33;;;;;;;;;13.25;10.00;;;;;-2.56;59.71;103133.50;5030370;28;11565;-68
2024/01/10 04:49:00;;;;;;;;;15.75;14.50;;;;;-2.55;59.57;103122.94;5029014;28;11632;-68
2024/01/10 04:51:27;;;;;;;;;15.25;13.75;;;;;-2.52;59.70;103124.56;5028761;28;11543;-68
2024/01/10 04:53:53;;;;;;;;;16.00;13.00;;;;;-2.58;58.99;103128.28;5028920;28;11542;-68
2024/01/10 04:56:20;;;;;;;;;16.25;15.75;;;;;-2.67;58.58;103125.09;5030140;28;11584;-68
2024/01/10 04:58:46;;;;;;;;;15.25;12.75;;;;;-2.64;59.12;103117.09;5027526;28;11546;-68
2024/01/10 05:01:14;;;;;;;;;13.67;9.00;;;;;-2.58;59.38;103128.28;5028435;28;11598;-68
2024/01/10 05:03:40;;;;;;;;;16.00;16.00;;;;;-2.62;59.92;103120.56;5028758;28;11677;-68
2024/01/10 05:06:07;;;;;;;;;15.25;14.50;;;;;-2.57;59.59;103122.09;5030026;28;11576;-68
2024/01/10 05:08:34;;;;;;;;;15.75;12.75;;;;;-2.56;59.90;103126.44;5030328;28;12459;-68
2024/01/10 05:11:00;;;;;;;;;18.67;15.67;;;;;-2.55;59.59;103119.44;5030037;28;11566;-68
2024/01/10 05:13:27;;;;;;;;;18.00;18.00;;;;;-2.67;58.60;103115.44;5028569;28;11564;-68
2024/01/10 05:15:54;;;;;;;;;21.33;19.00;;;;;-2.64;59.42;103109.19;5006541;28;11702;-68
2024/01/10 05:18:21;;;;;;;;;14.50;12.75;;;;;-2.76;59.18;103102.56;4990720;28;11630;-68
2024/01/10 05:20:47;;;;;;;;;16.50;14.00;;;;;-2.72;59.51;103104.16;4990592;28;11696;-68
2024/01/10 05:23:14;;;;;;;;;18.33;12.33;;;;;-2.82;59.52;103101.00;4988930;28;11651;-68
2024/01/10 05:25:41;;;;;;;;;15.75;15.00;;;;;-2.75;60.00;103104.31;4991101;28;11731;-68
2024/01/10 05:28:07;;;;;;;;;18.50;12.75;;;;;-2.63;61.01;103103.88;4993220;28;11652;-68
2024/01/10 05:30:35;;;;;;;;;19.00;17.50;;;;;-2.59;60.13;103112.53;4999747;28;11561;-68
2024/01/10 05:33:01;;;;;;;;;19.00;17.25;;;;;-2.62;60.37;103110.88;5012128;28;11585;-68
2024/01/10 05:35:28;;;;;;;;;17.33;13.00;;;;;-2.68;59.88;103107.56;5013129;28;12842;-68
2024/01/10 05:37:55;;;;;;;;;22.67;15.00;;;;;-2.70;59.82;103109.41;5013776;28;11584;-68
2024/01/10 05:40:21;;;;;;;;;12.50;12.00;;;;;-2.76;59.68;103105.19;5013527;28;11744;-68
2024/01/10 05:42:49;;;;;;;;;15.00;14.33;;;;;-2.78;59.28;103097.34;5012261;28;11629;-68
2024/01/10 05:45:17;;;;;;;;;27.33;17.33;;;;;-2.84;59.07;103101.94;5013770;28;11569;-68
2024/01/10 05:47:44;;;;;;;;;15.00;13.00;;;;;-2.72;60.15;103101.53;5021753;28;11555;-68
2024/01/10 05:50:11;;;;;;;;;17.00;14.00;;;;;-2.62;59.61;103105.59;5013649;28;12293;-68
2024/01/10 05:52:38;;;;;;;;;14.50;11.75;;;;;-2.65;59.75;103095.13;5012002;28;11571;-67
2024/01/10 05:55:06;;;;;;;;;15.50;14.00;;;;;-2.68;59.24;103092.59;4996121;28;11598;-67
2024/01/10 05:57:33;;;;;;;;;18.75;15.00;;;;;-2.66;59.28;103105.75;5012231;28;11657;-68
2024/01/10 05:59:59;;;;;;;;;18.75;17.00;;;;;-2.63;59.36;103105.63;5028754;28;11596;-68
2024/01/10 06:02:26;;;;;;;;;15.75;14.00;;;;;-2.60;59.03;103098.47;5024918;28;11625;-68
2024/01/10 06:04:53;;;;;;;;;18.75;13.00;;;;;-2.57;59.09;103089.59;5033031;28;11607;-68
2024/01/10 06:07:23;;;;;;;;;16.00;12.75;;;;;-2.52;59.29;103095.56;5033103;28;11577;-68
2024/01/10 06:09:49;;;;;;;;;18.50;13.00;;;;;-2.51;59.36;103094.69;5015474;28;11578;-68
2024/01/10 06:12:16;;;;;;;;;15.25;13.75;;;;;-2.58;58.34;103094.03;5031495;28;11558;-68
2024/01/10 06:14:42;;;;;;;;;14.25;13.75;;;;;-2.58;58.55;103087.91;5031597;28;12407;-68
2024/01/10 06:17:09;;;;;;;;;12.00;12.00;;;;;-2.57;58.17;103084.34;5015434;28;11582;-68
2024/01/10 06:19:36;;;;;;;;;16.75;12.50;;;;;-2.55;58.13;103093.91;5013082;28;11575;-68
2024/01/10 06:22:02;;;;;;;;;15.25;14.50;;;;;-2.53;57.95;103096.50;5012790;28;11593;-67
2024/01/10 06:24:29;;;;;;;;;13.00;11.25;;;;;-2.50;58.44;103091.13;5013240;28;11648;-67
2024/01/10 06:26:55;;;;;;;;;20.75;19.25;;;;;-2.59;57.58;103084.41;5013367;28;11590;-67
2024/01/10 06:29:22;;;;;;;;;19.25;13.50;;;;;-2.56;57.40;103081.63;5013408;28;11600;-67
2024/01/10 06:31:49;;;;;;;;;13.00;12.00;;;;;-2.60;57.76;103077.38;5013194;28;11611;-67
2024/01/10 06:34:15;;;;;;;;;13.25;12.75;;;;;-2.55;57.67;103080.75;5012885;28;11546;-67
2024/01/10 06:36:42;;;;;;;;;15.00;11.00;;;;;-2.59;57.01;103084.41;5012065;28;12291;-67
2024/01/10 06:39:12;;;;;;;;;15.75;10.00;;;;;-2.63;57.14;103077.50;5011460;28;11708;-67
2024/01/10 06:41:39;;;;;;;;;13.00;12.75;;;;;-2.68;56.84;103082.06;5012450;28;11706;-67
2024/01/10 06:44:06;;;;;;;;;14.00;5.50;;;;;-2.69;56.49;103090.91;5011529;28;11610;-67
2024/01/10 06:46:33;;;;;;;;;18.00;15.00;;;;;-2.64;57.04;103083.69;5011346;28;11520;-67
2024/01/10 06:49:00;;;;;;;;;14.50;13.00;;;;;-2.63;57.12;103085.41;5023194;28;11619;-67
2024/01/10 06:51:27;;;;;;;;;14.50;9.75;;;;;-2.56;56.88;103086.91;5013505;28;11624;-67
2024/01/10 06:54:00;;;;;;;;;13.33;13.33;;;;;-2.53;57.12;103083.31;5012408;28;11547;-68
2024/01/10 06:56:27;;;;;;;;;13.00;11.50;;;;;-2.47;57.54;103087.50;5012468;28;11558;-68
2024/01/10 06:58:54;;;;;;;;;16.50;12.50;;;;;-2.36;57.51;103077.44;5012204;28;11567;-68
2024/01/10 07:01:21;;;;;;;;;15.25;14.00;;;;;-2.38;56.73;103080.13;5010493;28;11574;-68
2024/01/10 07:03:48;;;;;;;;;16.00;14.33;;;;;-2.44;56.12;103079.47;5014870;28;11601;-68
2024/01/10 07:06:15;;;;;;;;;13.00;13.00;;;;;-2.48;57.10;103084.00;5011381;28;11560;-68
2024/01/10 07:08:44;;;;;;;;;16.00;12.00;;;;;-2.49;56.76;103083.13;5011074;28;11593;-68
2024/01/10 07:11:13;;;;;;;;;3.00;3.00;;;;;-2.43;57.58;103086.47;5010694;28;11561;-68
2024/01/10 07:13:41;;;;;;;;;19.25;13.50;;;;;-2.40;57.41;103096.91;5010874;28;11659;-68
2024/01/10 07:16:08;;;;;;;;;18.50;13.75;;;;;-2.45;56.32;103091.81;5011917;28;12344;-68
2024/01/10 07:18:35;;;;;;;;;15.25;11.50;;;;;-2.41;56.64;103092.56;5012010;28;12306;-68
2024/01/10 07:21:02;;;;;;;;;14.00;14.00;;;;;-2.40;56.17;103086.38;5008652;28;11612;-70
2024/01/10 07:23:29;;;;;;;;;14.25;11.50;;;;;-2.38;56.54;103089.81;4990984;28;11651;-68
2024/01/10 07:25:55;;;;;;;;;19.50;14.50;;;;;-2.45;55.57;103098.88;4992209;28;11576;-68
2024/01/10 07:28:22;;;;;;;;;17.33;15.00;;;;;-2.46;55.84;103102.41;4992090;28;11551;-68
2024/01/10 07:30:49;;;;;;;;;14.75;11.75;;;;;-2.47;55.93;103090.13;4992168;28;11650;-68
2024/01/10 07:33:15;;;;;;;;;15.00;12.50;;;;;-2.44;56.49;103098.78;4990866;28;11601;-68
2024/01/10 07:35:42;;;;;;;;;10.25;8.75;;;;;-2.49;56.42;103093.69;4991187;28;11621;-68
2024/01/10 07:38:09;;;;;;;;;19.75;13.00;;;;;-2.53;57.03;103102.63;5008691;28;11644;-68
2024/01/10 07:40:36;;;;;;;;;12.00;11.50;;;;;-2.54;56.86;103103.53;5010160;28;11617;-68
2024/01/10 07:43:04;;;;;;;;;12.00;10.00;;;;;-2.53;56.51;103107.03;5011358;28;11640;-68
2024/01/10 07:45:31;;;;;;;;;15.75;14.50;;;;;-2.55;56.12;103107.09;5011541;28;11709;-68
2024/01/10 07:47:57;;;;;;;;;16.50;14.50;;;;;-2.58;55.89;103108.97;5011161;28;11603;-68
2024/01/10 07:50:27;;;;;;;;;14.50;9.00;;;;;-2.54;56.80;103110.59;5010615;28;12380;-68
2024/01/10 07:52:53;;;;;;;;;16.00;12.25;;;;;-2.57;56.16;103114.19;5025931;28;11550;-68
2024/01/10 07:55:20;;;;;;;;;12.50;11.50;;;;;-2.55;56.65;103117.66;5030893;28;11583;-67
2024/01/10 07:57:47;;;;;;;;;12.00;10.50;;;;;-2.52;55.99;103114.88;5031118;28;11546;-68
2024/01/10 08:00:15;;;;;;;;;14.50;14.50;;;;;-2.46;56.31;103131.44;5030975;28;11540;-68
2024/01/10 08:02:42;;;;;;;;;10.00;10.00;;;;;-2.39;56.35;103122.38;5034952;22;11735;-66
2024/01/10 08:05:08;;;;;;;;;19.25;14.00;;;;;-2.33;55.83;103106.34;5011206;28;11644;-66
2024/01/10 08:07:39;;;;;;;;;13.50;12.00;;;;;-2.37;55.36;103112.63;5011345;28;11588;-66
2024/01/10 08:10:09;;;;;;;;;11.00;10.50;;;;;-2.46;55.41;103134.06;5010947;28;11542;-65
2024/01/10 08:12:41;;;;;;;;;12.00;11.00;;;;;-2.55;55.97;103122.94;4996194;28;11588;-65
2024/01/10 08:15:07;;;;;;;;;17.00;13.00;;;;;-2.52;56.29;103117.53;4991624;28;11593;-65
2024/01/10 08:17:36;;;;;;;;;13.25;10.50;;;;;-2.54;55.40;103126.41;4991274;28;11601;-66
2024/01/10 08:20:06;;;;;;;;;12.00;12.00;;;;;-2.63;55.11;103126.72;4991018;28;12404;-66
2024/01/10 08:22:32;;;;;;;;;13.50;11.00;;;;;-2.66;54.71;103125.06;4990828;28;11587;-65
2024/01/10 08:24:59;;;;;;;;;12.33;10.00;;;;;-2.62;54.46;103118.78;4992350;28;11559;-66
2024/01/10 08:27:26;;;;;;;;;10.50;9.25;;;;;-2.65;53.92;103121.50;4991166;28;11570;-66
2024/01/10 08:29:52;;;;;;;;;15.00;9.50;;;;;-2.63;54.11;103124.97;4991022;28;12314;-66
2024/01/10 08:32:21;;;;;;;;;8.50;7.50;;;;;-2.65;54.50;103118.88;4990876;28;11674;-66
2024/01/10 08:34:49;;;;;;;;;12.75;9.50;;;;;-2.67;54.03;103120.72;4991041;28;11562;-66
2024/01/10 08:37:18;;;;;;;;;15.75;15.25;;;;;-2.58;54.09;103122.16;4989811;28;11633;-66
2024/01/10 08:39:45;;;;;;;;;12.25;9.50;;;;;-2.53;53.57;103118.44;4991066;28;11704;-65
2024/01/10 08:42:11;;;;;;;;;9.00;9.00;;;;;-2.46;54.67;103115.59;4991711;28;11586;-66
2024/01/10 08:44:38;;;;;;;;;12.00;9.25;;;;;-2.43;54.61;103124.28;4990866;28;11557;-66
2024/01/10 08:47:05;;;;;;;;;12.75;11.50;;;;;-2.34;54.96;103125.72;4990749;28;11546;-67
2024/01/10 08:49:32;;;;;;;;;11.50;11.50;;;;;-2.28;55.24;103125.50;4989527;28;11602;-67
2024/01/10 08:51:58;;;;;;;;;12.50;10.00;;;;;-2.37;53.97;103123.19;4989362;28;11664;-66
2024/01/10 08:54:25;;;;;;;;;13.00;9.25;;;;;-2.44;54.51;103121.66;4990709;28;11562;-66
2024/01/10 08:56:51;;;;;;;;;17.00;12.25;;;;;-2.45;54.40;103128.72;4990708;28;11651;-66
2024/01/10 08:59:18;;;;;;;;;9.75;9.00;;;;;-2.43;54.39;103120.75;4991819;28;11563;-66
2024/01/10 09:01:45;;;;;;;;;13.00;13.00;;;;;-2.41;55.00;103126.84;4989805;28;11631;-66
2024/01/10 09:04:12;;;;;;;;;11.00;10.50;;;;;-2.34;54.67;103123.09;4989675;28;11595;-67
2024/01/10 09:06:39;;;;;;;;;16.50;13.00;;;;;-2.34;54.48;103123.94;4990570;28;11602;-66
2024/01/10 09:09:06;;;;;;;;;17.00;15.25;;;;;-2.34;54.76;103117.81;4990861;28;11706;-66
2024/01/10 09:11:33;;;;;;;;;12.00;11.00;;;;;-2.41;53.61;103101.34;4990214;28;11719;-66
2024/01/10 09:14:05;;;;;;;;;15.50;13.50;;;;;-2.34;53.97;103096.72;4990044;28;11601;-67
2024/01/10 09:16:32;;;;;;;;;10.50;10.50;;;;;-2.25;54.11;103096.38;4972966;28;11629;-66
2024/01/10 09:18:59;;;;;;;;;13.00;11.00;;;;;-2.08;54.41;103087.81;4989199;28;11582;-66
2024/01/10 09:21:26;;;;;;;;;17.25;14.25;;;;;-1.96;54.56;103103.19;4988862;28;11598;-67
2024/01/10 09:23:53;;;;;;;;;12.50;11.00;;;;;-1.83;55.49;103108.88;4990405;28;12451;-66
2024/01/10 09:26:20;;;;;;;;;13.00;13.00;;;;;-1.86;54.75;103087.91;4989266;28;11617;-66
2024/01/10 09:28:46;;;;;;;;;18.00;18.00;;;;;-1.86;54.48;103085.25;4990417;28;12283;-66
2024/01/10 09:31:13;;;;;;;;;13.00;13.00;;;;;-1.78;55.69;103106.94;4989904;28;11599;-67
2024/01/10 09:33:40;;;;;;;;;16.50;15.25;;;;;-1.76;55.08;103099.81;4990372;28;11583;-66
2024/01/10 09:36:07;;;;;;;;;19.25;17.50;;;;;-1.77;54.97;103104.22;4990155;28;11662;-66
2024/01/10 09:38:39;;;;;;;;;11.50;10.00;;;;;-1.70;54.93;103104.88;5005243;28;11636;-67
2024/01/10 09:41:06;;;;;;;;;16.00;13.50;;;;;-1.59;55.17;103107.06;4988732;28;11745;-68
2024/01/10 09:43:33;;;;;;;;;16.25;15.00;;;;;-1.52;54.33;103114.69;4989984;28;11593;-67
2024/01/10 09:46:01;;;;;;;;;15.75;10.50;;;;;-1.51;54.37;103108.50;4990254;28;11587;-68
2024/01/10 09:48:29;;;;;;;;;17.50;15.25;;;;;-1.50;55.61;103106.72;4991328;28;11564;-67
2024/01/10 09:50:56;;;;;;;;;15.75;14.75;;;;;-1.50;55.09;103107.59;4990128;28;11619;-67
2024/01/10 09:53:23;;;;;;;;;16.00;14.50;;;;;-1.54;55.39;103091.91;4988687;28;11623;-67
2024/01/10 09:55:50;;;;;;;;;21.50;18.25;;;;;-1.65;54.70;103108.19;4988746;28;12390;-67
2024/01/10 09:58:17;;;;;;;;;18.25;15.50;;;;;-1.58;54.78;103116.72;4990302;28;12416;-67
2024/01/10 10:00:44;;;;;;;;;21.25;17.50;;;;;-1.60;54.93;103111.50;4990219;28;11744;-67
2024/01/10 10:03:12;;;;;;;;;18.75;14.50;;;;;-1.52;55.48;103105.91;5003642;28;11589;-67
2024/01/10 10:05:41;;;;;;;;;22.75;15.75;;;;;-1.48;54.59;103110.16;5008264;28;11596;-67
2024/01/10 10:08:11;;;;;;;;;22.00;16.00;;;;;-1.39;53.95;103099.22;5009750;28;11576;-67
2024/01/10 10:10:42;;;;;;;;;18.75;17.50;;;;;-1.32;54.71;103102.50;5008207;28;11579;-65
2024/01/10 10:13:13;;;;;;;;;21.50;18.50;;;;;-1.31;54.05;103093.63;5011926;28;11705;-68
2024/01/10 10:15:40;;;;;;;;;14.25;11.00;;;;;-1.24;53.69;103095.13;5013583;28;11579;-66
2024/01/10 10:18:13;;;;;;;;;17.00;15.50;;;;;-1.31;53.58;103093.63;5010599;28;11596;-67
2024/01/10 10:20:40;;;;;;;;;19.00;15.50;;;;;-1.33;52.44;103092.84;5012026;28;11582;-66
2024/01/10 10:23:15;;;;;;;;;17.50;15.00;;;;;-1.40;52.49;103091.38;5012611;28;11587;-66
2024/01/10 10:25:47;;;;;;;;;20.25;18.75;;;;;-1.38;53.55;103089.50;5013039;28;11566;-66
2024/01/10 10:28:15;;;;;;;;;15.75;15.75;;;;;-1.24;52.77;103089.84;5011563;28;11583;-66
2024/01/10 10:30:55;;;;;;;;;14.25;14.25;;;;;-1.31;52.51;103085.72;5011405;28;11592;-66
2024/01/10 10:33:22;;;;;;;;;14.50;14.50;;;;;-1.41;52.38;103098.44;5011496;28;11565;-66
2024/01/10 10:35:50;;;;;;;;;17.25;14.75;;;;;-1.35;53.12;103094.69;5010085;28;11654;-66
2024/01/10 10:38:21;;;;;;;;;16.50;15.00;;;;;-1.31;52.49;103086.56;5011828;28;11585;-66
2024/01/10 10:40:49;;;;;;;;;24.00;20.00;;;;;-1.36;52.83;103095.63;5012678;28;12329;-66
2024/01/10 10:43:20;;;;;;;;;15.50;15.50;;;;;-1.42;52.54;103085.28;5012486;28;11590;-66
2024/01/10 10:45:50;;;;;;;;;18.00;17.50;;;;;-1.34;53.63;103088.47;5012684;28;11577;-66
2024/01/10 10:48:20;;;;;;;;;18.50;16.50;;;;;-1.29;52.50;103097.94;4994832;28;11741;-66
2024/01/10 10:50:58;;;;;;;;;22.00;20.00;;;;;-1.34;53.09;103091.97;5011968;28;11576;-66
2024/01/10 10:53:28;;;;;;;;;20.50;18.50;;;;;-1.19;53.29;103089.63;5011737;28;11578;-66
2024/01/10 10:55:58;;;;;;;;;23.00;18.75;;;;;-1.21;52.66;103092.34;5012314;28;11577;-66
2024/01/10 10:58:25;;;;;;;;;23.00;18.50;;;;;-1.28;51.83;103086.44;5010822;28;11726;-66
2024/01/10 11:00:52;;;;;;;;;17.00;17.00;;;;;-1.36;51.88;103085.03;5010879;28;11569;-66
2024/01/10 11:03:20;;;;;;;;;24.00;18.75;;;;;-1.38;52.31;103092.16;5011894;28;11564;-66
2024/01/10 11:05:47;;;;;;;;;14.50;14.00;;;;;-1.38;51.64;103089.50;4994955;28;11578;-66
2024/01/10 11:08:18;;;;;;;;;17.25;15.00;;;;;-1.33;52.69;103092.84;4999992;28;11602;-66
2024/01/10 11:10:47;;;;;;;;;18.50;16.00;;;;;-1.27;52.01;103093.44;4992526;28;11619;-66